sensor_id;sensor_type;location;lat;lon;timestamp;pressure;altitude;pressure_sealevel;temperature;humidity
43364;BME280;40636;52.424;-1.948;2023-04-27T00:01:35;100128.53;;;4.29;100.00
43364;BME280;40636;52.424;-1.948;2023-04-27T00:04:02;100129.38;;;4.23;100.00
43364;BME280;40636;52.424;-1.948;2023-04-27T00:06:30;100127.06;;;4.26;100.00
43364;BME280;40636;52.424;-1.948;2023-04-27T00:08:57;100126.22;;;4.26;100.00
43364;BME280;40636;52.424;-1.948;2023-04-27T00:11:25;100124.34;;;4.20;100.00
43364;BME280;40636;52.424;-1.948;2023-04-27T00:13:52;100116.16;;;4.13;100.00
43364;BME280;40636;52.424;-1.948;2023-04-27T00:16:18;100112.59;;;4.13;100.00
43364;BME280;40636;52.424;-1.948;2023-04-27T00:18:45;100104.22;;;4.07;100.00
43364;BME280;40636;52.424;-1.948;2023-04-27T00:21:12;100106.72;;;4.02;100.00
43364;BME280;40636;52.424;-1.948;2023-04-27T00:23:38;100105.50;;;4.05;100.00
43364;BME280;40636;52.424;-1.948;2023-04-27T00:26:05;100102.13;;;3.96;100.00
43364;BME280;40636;52.424;-1.948;2023-04-27T00:28:32;100099.63;;;4.01;100.00
43364;BME280;40636;52.424;-1.948;2023-04-27T00:30:59;100107.13;;;3.99;100.00
43364;BME280;40636;52.424;-1.948;2023-04-27T00:33:28;100095.03;;;3.95;100.00
43364;BME280;40636;52.424;-1.948;2023-04-27T00:35:58;100095.66;;;3.97;100.00
43364;BME280;40636;52.424;-1.948;2023-04-27T00:38:27;100090.84;;;3.99;100.00
43364;BME280;40636;52.424;-1.948;2023-04-27T00:41:05;100085.63;;;3.91;100.00
43364;BME280;40636;52.424;-1.948;2023-04-27T00:43:39;100089.97;;;3.86;100.00
43364;BME280;40636;52.424;-1.948;2023-04-27T00:46:07;100090.38;;;3.83;100.00
43364;BME280;40636;52.424;-1.948;2023-04-27T00:48:34;100093.53;;;3.86;100.00
43364;BME280;40636;52.424;-1.948;2023-04-27T00:51:01;100092.88;;;3.84;100.00
43364;BME280;40636;52.424;-1.948;2023-04-27T00:53:28;100088.28;;;3.78;100.00
43364;BME280;40636;52.424;-1.948;2023-04-27T00:55:54;100096.41;;;3.78;100.00
43364;BME280;40636;52.424;-1.948;2023-04-27T00:58:23;100095.78;;;3.76;100.00
43364;BME280;40636;52.424;-1.948;2023-04-27T01:00:50;100090.13;;;3.71;100.00
43364;BME280;40636;52.424;-1.948;2023-04-27T01:03:17;100100.53;;;3.67;100.00
43364;BME280;40636;52.424;-1.948;2023-04-27T01:05:44;100104.69;;;3.63;100.00
43364;BME280;40636;52.424;-1.948;2023-04-27T01:08:11;100099.94;;;3.72;100.00
43364;BME280;40636;52.424;-1.948;2023-04-27T01:10:38;100100.75;;;3.72;100.00
43364;BME280;40636;52.424;-1.948;2023-04-27T01:13:04;100100.13;;;3.70;100.00
43364;BME280;40636;52.424;-1.948;2023-04-27T01:15:31;100093.28;;;3.74;100.00
43364;BME280;40636;52.424;-1.948;2023-04-27T01:17:58;100089.13;;;3.78;100.00
43364;BME280;40636;52.424;-1.948;2023-04-27T01:20:25;100086.84;;;3.89;100.00
43364;BME280;40636;52.424;-1.948;2023-04-27T01:22:56;100095.63;;;3.91;100.00
43364;BME280;40636;52.424;-1.948;2023-04-27T01:25:23;100090.38;;;3.89;100.00
43364;BME280;40636;52.424;-1.948;2023-04-27T01:27:50;100093.97;;;3.96;100.00
43364;BME280;40636;52.424;-1.948;2023-04-27T01:30:16;100098.97;;;3.93;100.00
43364;BME280;40636;52.424;-1.948;2023-04-27T01:32:43;100105.84;;;3.89;100.00
43364;BME280;40636;52.424;-1.948;2023-04-27T01:35:10;100105.88;;;3.95;100.00
43364;BME280;40636;52.424;-1.948;2023-04-27T01:37:37;100106.69;;;3.89;100.00
43364;BME280;40636;52.424;-1.948;2023-04-27T01:40:04;100106.50;;;3.97;100.00
43364;BME280;40636;52.424;-1.948;2023-04-27T01:42:32;100107.13;;;3.93;100.00
43364;BME280;40636;52.424;-1.948;2023-04-27T01:44:58;100095.25;;;4.00;100.00
43364;BME280;40636;52.424;-1.948;2023-04-27T01:47:26;100098.78;;;4.01;100.00
43364;BME280;40636;52.424;-1.948;2023-04-27T01:49:53;100098.78;;;4.01;100.00
43364;BME280;40636;52.424;-1.948;2023-04-27T01:52:19;100090.22;;;3.97;100.00
43364;BME280;40636;52.424;-1.948;2023-04-27T01:54:46;100090.66;;;4.01;100.00
43364;BME280;40636;52.424;-1.948;2023-04-27T01:57:13;100089.59;;;4.02;100.00
43364;BME280;40636;52.424;-1.948;2023-04-27T01:59:39;100095.47;;;4.05;100.00
43364;BME280;40636;52.424;-1.948;2023-04-27T02:02:06;100096.09;;;4.07;100.00
43364;BME280;40636;52.424;-1.948;2023-04-27T02:04:33;100098.41;;;4.11;100.00
43364;BME280;40636;52.424;-1.948;2023-04-27T02:07:02;100086.94;;;4.15;100.00
43364;BME280;40636;52.424;-1.948;2023-04-27T02:09:28;100096.97;;;4.21;100.00
43364;BME280;40636;52.424;-1.948;2023-04-27T02:11:55;100102.19;;;4.23;100.00
43364;BME280;40636;52.424;-1.948;2023-04-27T02:14:22;100098.44;;;4.24;100.00
43364;BME280;40636;52.424;-1.948;2023-04-27T02:16:48;100093.44;;;4.27;100.00
43364;BME280;40636;52.424;-1.948;2023-04-27T02:19:15;100096.56;;;4.31;100.00
43364;BME280;40636;52.424;-1.948;2023-04-27T02:21:42;100094.69;;;4.38;100.00
43364;BME280;40636;52.424;-1.948;2023-04-27T02:24:09;100097.63;;;4.43;100.00
43364;BME280;40636;52.424;-1.948;2023-04-27T02:26:35;100094.28;;;4.41;100.00
43364;BME280;40636;52.424;-1.948;2023-04-27T02:29:02;100088.03;;;4.47;100.00
43364;BME280;40636;52.424;-1.948;2023-04-27T02:31:29;100091.34;;;4.49;100.00
43364;BME280;40636;52.424;-1.948;2023-04-27T02:33:56;100088.88;;;4.54;100.00
43364;BME280;40636;52.424;-1.948;2023-04-27T02:36:23;100087.19;;;4.53;100.00
43364;BME280;40636;52.424;-1.948;2023-04-27T02:38:49;100088.88;;;4.54;100.00
43364;BME280;40636;52.424;-1.948;2023-04-27T02:41:16;100092.81;;;4.58;100.00
43364;BME280;40636;52.424;-1.948;2023-04-27T02:43:43;100081.34;;;4.56;100.00
43364;BME280;40636;52.424;-1.948;2023-04-27T02:46:09;100081.34;;;4.56;100.00
43364;BME280;40636;52.424;-1.948;2023-04-27T02:48:36;100070.69;;;4.55;100.00
43364;BME280;40636;52.424;-1.948;2023-04-27T02:51:03;100078.22;;;4.60;100.00
43364;BME280;40636;52.424;-1.948;2023-04-27T02:53:30;100069.41;;;4.57;100.00
43364;BME280;40636;52.424;-1.948;2023-04-27T02:55:56;100070.03;;;4.53;100.00
43364;BME280;40636;52.424;-1.948;2023-04-27T02:58:24;100068.38;;;4.45;100.00
43364;BME280;40636;52.424;-1.948;2023-04-27T03:00:55;100071.28;;;4.37;100.00
43364;BME280;40636;52.424;-1.948;2023-04-27T03:03:22;100072.09;;;4.31;100.00
43364;BME280;40636;52.424;-1.948;2023-04-27T03:05:50;100081.31;;;4.30;100.00
43364;BME280;40636;52.424;-1.948;2023-04-27T03:08:16;100075.88;;;4.23;100.00
43364;BME280;40636;52.424;-1.948;2023-04-27T03:10:43;100072.31;;;4.23;100.00
43364;BME280;40636;52.424;-1.948;2023-04-27T03:13:10;100063.75;;;4.19;100.00
43364;BME280;40636;52.424;-1.948;2023-04-27T03:15:36;100072.94;;;4.18;100.00
43364;BME280;40636;52.424;-1.948;2023-04-27T03:18:03;100069.56;;;4.16;100.00
43364;BME280;40636;52.424;-1.948;2023-04-27T03:20:30;100063.31;;;4.16;100.00
43364;BME280;40636;52.424;-1.948;2023-04-27T03:22:57;100064.38;;;4.15;100.00
43364;BME280;40636;52.424;-1.948;2023-04-27T03:25:24;100058.28;;;4.13;100.00
43364;BME280;40636;52.424;-1.948;2023-04-27T03:27:50;100054.94;;;4.11;100.00
43364;BME280;40636;52.424;-1.948;2023-04-27T03:30:17;100051.59;;;4.08;100.00
43364;BME280;40636;52.424;-1.948;2023-04-27T03:32:44;100044.72;;;4.06;100.00
43364;BME280;40636;52.424;-1.948;2023-04-27T03:35:13;100040.50;;;3.97;100.00
43364;BME280;40636;52.424;-1.948;2023-04-27T03:37:40;100039.91;;;4.01;100.00
43364;BME280;40636;52.424;-1.948;2023-04-27T03:40:07;100036.56;;;4.06;100.00
43364;BME280;40636;52.424;-1.948;2023-04-27T03:42:34;100035.94;;;4.11;100.00
43364;BME280;40636;52.424;-1.948;2023-04-27T03:45:01;100029.47;;;4.12;100.00
43364;BME280;40636;52.424;-1.948;2023-04-27T03:47:27;100039.09;;;4.21;100.00
43364;BME280;40636;52.424;-1.948;2023-04-27T03:49:54;100042.66;;;4.28;100.00
43364;BME280;40636;52.424;-1.948;2023-04-27T03:52:20;100034.50;;;4.28;100.00
43364;BME280;40636;52.424;-1.948;2023-04-27T03:54:47;100031.78;;;4.28;100.00
43364;BME280;40636;52.424;-1.948;2023-04-27T03:57:14;100031.78;;;4.28;100.00
43364;BME280;40636;52.424;-1.948;2023-04-27T03:59:41;100028.44;;;4.26;100.00
43364;BME280;40636;52.424;-1.948;2023-04-27T04:02:07;100020.28;;;4.26;100.00
43364;BME280;40636;52.424;-1.948;2023-04-27T04:04:35;100021.75;;;4.35;100.00
43364;BME280;40636;52.424;-1.948;2023-04-27T04:07:01;100018.22;;;4.41;100.00
43364;BME280;40636;52.424;-1.948;2023-04-27T04:09:28;100009.63;;;4.44;100.00
43364;BME280;40636;52.424;-1.948;2023-04-27T04:11:55;100017.59;;;4.46;100.00
43364;BME280;40636;52.424;-1.948;2023-04-27T04:14:21;100015.72;;;4.46;100.00
43364;BME280;40636;52.424;-1.948;2023-04-27T04:16:48;100019.47;;;4.45;100.00
43364;BME280;40636;52.424;-1.948;2023-04-27T04:19:15;100016.13;;;4.50;100.00
43364;BME280;40636;52.424;-1.948;2023-04-27T04:21:42;100018.00;;;4.49;100.00
43364;BME280;40636;52.424;-1.948;2023-04-27T04:24:09;100014.66;;;4.47;100.00
43364;BME280;40636;52.424;-1.948;2023-04-27T04:26:35;100014.03;;;4.45;100.00
43364;BME280;40636;52.424;-1.948;2023-04-27T04:29:04;100016.53;;;4.40;100.00
43364;BME280;40636;52.424;-1.948;2023-04-27T04:31:30;100004.00;;;4.32;100.00
43364;BME280;40636;52.424;-1.948;2023-04-27T04:34:00;100006.06;;;4.30;100.00
43364;BME280;40636;52.424;-1.948;2023-04-27T04:36:27;100009.41;;;4.26;100.00
43364;BME280;40636;52.424;-1.948;2023-04-27T04:38:54;100004.63;;;4.28;100.00
43364;BME280;40636;52.424;-1.948;2023-04-27T04:41:22;100000.66;;;4.24;100.00
43364;BME280;40636;52.424;-1.948;2023-04-27T04:43:49;100006.28;;;4.29;100.00
43364;BME280;40636;52.424;-1.948;2023-04-27T04:46:17;100007.97;;;4.30;100.00
43364;BME280;40636;52.424;-1.948;2023-04-27T04:48:45;100003.56;;;4.29;100.00
43364;BME280;40636;52.424;-1.948;2023-04-27T04:51:12;99997.53;;;4.33;100.00
43364;BME280;40636;52.424;-1.948;2023-04-27T04:53:39;100005.25;;;4.37;100.00
43364;BME280;40636;52.424;-1.948;2023-04-27T04:56:10;100002.53;;;4.43;100.00
43364;BME280;40636;52.424;-1.948;2023-04-27T04:58:37;99998.97;;;4.43;100.00
43364;BME280;40636;52.424;-1.948;2023-04-27T05:01:04;99997.72;;;4.52;100.00
43364;BME280;40636;52.424;-1.948;2023-04-27T05:03:32;99988.09;;;4.56;100.00
43364;BME280;40636;52.424;-1.948;2023-04-27T05:05:59;99983.28;;;4.58;100.00
43364;BME280;40636;52.424;-1.948;2023-04-27T05:08:25;99988.50;;;4.66;100.00
43364;BME280;40636;52.424;-1.948;2023-04-27T05:10:52;99986.00;;;4.65;100.00
43364;BME280;40636;52.424;-1.948;2023-04-27T05:13:20;99992.28;;;4.65;100.00
43364;BME280;40636;52.424;-1.948;2023-04-27T05:15:46;99984.75;;;4.74;100.00
43364;BME280;40636;52.424;-1.948;2023-04-27T05:18:13;99993.50;;;4.82;100.00
43364;BME280;40636;52.424;-1.948;2023-04-27T05:20:40;99981.78;;;4.89;100.00
43364;BME280;40636;52.424;-1.948;2023-04-27T05:23:06;99987.41;;;4.94;100.00
43364;BME280;40636;52.424;-1.948;2023-04-27T05:25:34;99990.34;;;4.92;100.00
43364;BME280;40636;52.424;-1.948;2023-04-27T05:28:07;99994.94;;;4.98;100.00
43364;BME280;40636;52.424;-1.948;2023-04-27T05:30:35;99999.91;;;5.08;100.00
43364;BME280;40636;52.424;-1.948;2023-04-27T05:33:02;100000.97;;;5.14;100.00
43364;BME280;40636;52.424;-1.948;2023-04-27T05:35:30;99987.75;;;5.17;100.00
43364;BME280;40636;52.424;-1.948;2023-04-27T05:37:57;99984.38;;;5.22;100.00
43364;BME280;40636;52.424;-1.948;2023-04-27T05:40:23;99978.31;;;5.26;100.00
43364;BME280;40636;52.424;-1.948;2023-04-27T05:42:50;99981.00;;;5.33;100.00
43364;BME280;40636;52.424;-1.948;2023-04-27T05:45:17;99981.19;;;5.38;100.00
43364;BME280;40636;52.424;-1.948;2023-04-27T05:47:44;99980.13;;;5.46;100.00
43364;BME280;40636;52.424;-1.948;2023-04-27T05:50:11;99982.81;;;5.52;100.00
43364;BME280;40636;52.424;-1.948;2023-04-27T05:52:37;99979.00;;;5.60;100.00
43364;BME280;40636;52.424;-1.948;2023-04-27T05:55:05;99976.28;;;5.60;100.00
43364;BME280;40636;52.424;-1.948;2023-04-27T05:57:33;99968.94;;;5.60;100.00
43364;BME280;40636;52.424;-1.948;2023-04-27T06:00:00;99963.09;;;5.64;100.00
43364;BME280;40636;52.424;-1.948;2023-04-27T06:02:26;99961.38;;;5.63;100.00
43364;BME280;40636;52.424;-1.948;2023-04-27T06:04:53;99957.19;;;5.67;100.00
43364;BME280;40636;52.424;-1.948;2023-04-27T06:07:20;99958.22;;;5.72;100.00
43364;BME280;40636;52.424;-1.948;2023-04-27T06:09:47;99955.50;;;5.72;100.00
43364;BME280;40636;52.424;-1.948;2023-04-27T06:12:14;99960.06;;;5.78;100.00
43364;BME280;40636;52.424;-1.948;2023-04-27T06:14:40;99962.53;;;5.87;100.00
43364;BME280;40636;52.424;-1.948;2023-04-27T06:17:07;99950.97;;;5.91;100.00
43364;BME280;40636;52.424;-1.948;2023-04-27T06:19:34;99949.94;;;5.92;100.00
43364;BME280;40636;52.424;-1.948;2023-04-27T06:22:00;99946.97;;;5.94;100.00
43364;BME280;40636;52.424;-1.948;2023-04-27T06:24:28;99952.59;;;5.99;100.00
43364;BME280;40636;52.424;-1.948;2023-04-27T06:26:55;99955.72;;;6.02;100.00
43364;BME280;40636;52.424;-1.948;2023-04-27T06:29:22;99958.59;;;6.14;100.00
43364;BME280;40636;52.424;-1.948;2023-04-27T06:31:49;99955.34;;;6.24;100.00
43364;BME280;40636;52.424;-1.948;2023-04-27T06:34:15;99953.41;;;6.31;100.00
43364;BME280;40636;52.424;-1.948;2023-04-27T06:36:42;99952.38;;;6.32;100.00
43364;BME280;40636;52.424;-1.948;2023-04-27T06:39:09;99957.50;;;6.40;100.00
43364;BME280;40636;52.424;-1.948;2023-04-27T06:41:35;99953.28;;;6.44;100.00
43364;BME280;40636;52.424;-1.948;2023-04-27T06:44:02;99946.31;;;6.48;100.00
43364;BME280;40636;52.424;-1.948;2023-04-27T06:46:28;99938.31;;;6.53;100.00
43364;BME280;40636;52.424;-1.948;2023-04-27T06:48:55;99950.22;;;6.59;100.00
43364;BME280;40636;52.424;-1.948;2023-04-27T06:51:22;99939.63;;;6.69;100.00
43364;BME280;40636;52.424;-1.948;2023-04-27T06:53:48;99933.75;;;6.72;100.00
43364;BME280;40636;52.424;-1.948;2023-04-27T06:56:15;99943.72;;;6.78;100.00
43364;BME280;40636;52.424;-1.948;2023-04-27T06:58:42;99950.72;;;6.93;100.00
43364;BME280;40636;52.424;-1.948;2023-04-27T07:01:09;99962.75;;;7.03;100.00
43364;BME280;40636;52.424;-1.948;2023-04-27T07:03:35;99959.97;;;7.10;100.00
43364;BME280;40636;52.424;-1.948;2023-04-27T07:06:03;99961.25;;;7.07;100.00
43364;BME280;40636;52.424;-1.948;2023-04-27T07:08:29;99963.06;;;7.14;100.00
43364;BME280;40636;52.424;-1.948;2023-04-27T07:10:56;99967.16;;;7.23;100.00
43364;BME280;40636;52.424;-1.948;2023-04-27T07:13:23;99952.34;;;7.30;100.00
43364;BME280;40636;52.424;-1.948;2023-04-27T07:15:55;99956.91;;;7.36;100.00
43364;BME280;40636;52.424;-1.948;2023-04-27T07:18:26;99955.72;;;7.32;100.00
43364;BME280;40636;52.424;-1.948;2023-04-27T07:20:55;99961.44;;;7.43;100.00
43364;BME280;40636;52.424;-1.948;2023-04-27T07:23:23;99957.44;;;7.45;100.00
43364;BME280;40636;52.424;-1.948;2023-04-27T07:25:51;99956.38;;;7.46;100.00
43364;BME280;40636;52.424;-1.948;2023-04-27T07:28:17;99948.69;;;7.55;100.00
43364;BME280;40636;52.424;-1.948;2023-04-27T07:30:44;99945.72;;;7.56;100.00
43364;BME280;40636;52.424;-1.948;2023-04-27T07:33:11;99955.72;;;7.62;100.00
43364;BME280;40636;52.424;-1.948;2023-04-27T07:35:38;99954.19;;;7.67;100.00
43364;BME280;40636;52.424;-1.948;2023-04-27T07:38:05;99956.34;;;7.65;100.00
43364;BME280;40636;52.424;-1.948;2023-04-27T07:40:33;99964.06;;;7.68;100.00
43364;BME280;40636;52.424;-1.948;2023-04-27T07:42:59;99957.41;;;7.63;100.00
43364;BME280;40636;52.424;-1.948;2023-04-27T07:45:26;99967.41;;;7.70;100.00
43364;BME280;40636;52.424;-1.948;2023-04-27T07:47:59;99957.22;;;7.77;100.00
43364;BME280;40636;52.424;-1.948;2023-04-27T07:50:28;99966.75;;;7.86;100.00
43364;BME280;40636;52.424;-1.948;2023-04-27T07:52:56;99966.75;;;7.86;100.00
43364;BME280;40636;52.424;-1.948;2023-04-27T07:55:23;99971.28;;;7.92;100.00
43364;BME280;40636;52.424;-1.948;2023-04-27T07:57:54;99974.16;;;7.97;100.00
43364;BME280;40636;52.424;-1.948;2023-04-27T08:00:22;99973.88;;;7.87;100.00
43364;BME280;40636;52.424;-1.948;2023-04-27T08:02:53;99966.88;;;7.91;100.00
43364;BME280;40636;52.424;-1.948;2023-04-27T08:05:21;99966.66;;;7.93;100.00
43364;BME280;40636;52.424;-1.948;2023-04-27T08:07:48;99959.03;;;7.95;100.00
43364;BME280;40636;52.424;-1.948;2023-04-27T08:10:16;99943.00;;;7.98;100.00
43364;BME280;40636;52.424;-1.948;2023-04-27T08:12:43;99949.69;;;8.02;100.00
43364;BME280;40636;52.424;-1.948;2023-04-27T08:15:10;99937.09;;;8.01;100.00
43364;BME280;40636;52.424;-1.948;2023-04-27T08:17:37;99936.63;;;8.04;100.00
43364;BME280;40636;52.424;-1.948;2023-04-27T08:20:07;99930.47;;;8.09;100.00
43364;BME280;40636;52.424;-1.948;2023-04-27T08:22:40;99928.69;;;8.14;100.00
43364;BME280;40636;52.424;-1.948;2023-04-27T08:25:08;99921.56;;;8.13;100.00
43364;BME280;40636;52.424;-1.948;2023-04-27T08:27:38;99922.59;;;8.12;100.00
43364;BME280;40636;52.424;-1.948;2023-04-27T08:30:08;99915.59;;;8.17;100.00
43364;BME280;40636;52.424;-1.948;2023-04-27T08:32:35;99921.19;;;8.22;100.00
43364;BME280;40636;52.424;-1.948;2023-04-27T08:35:03;99908.13;;;8.24;100.00
43364;BME280;40636;52.424;-1.948;2023-04-27T08:37:30;99911.09;;;8.34;100.00
43364;BME280;40636;52.424;-1.948;2023-04-27T08:39:57;99897.94;;;8.43;100.00
43364;BME280;40636;52.424;-1.948;2023-04-27T08:42:25;99907.44;;;8.40;100.00
43364;BME280;40636;52.424;-1.948;2023-04-27T08:44:52;99907.94;;;8.37;100.00
43364;BME280;40636;52.424;-1.948;2023-04-27T08:47:19;99902.13;;;8.45;100.00
43364;BME280;40636;52.424;-1.948;2023-04-27T08:50:04;99904.13;;;8.38;100.00
43364;BME280;40636;52.424;-1.948;2023-04-27T08:52:31;99898.19;;;8.41;100.00
43364;BME280;40636;52.424;-1.948;2023-04-27T08:54:59;99898.31;;;8.46;100.00
43364;BME280;40636;52.424;-1.948;2023-04-27T08:57:26;99904.47;;;8.53;100.00
43364;BME280;40636;52.424;-1.948;2023-04-27T08:59:59;99887.00;;;8.54;100.00
43364;BME280;40636;52.424;-1.948;2023-04-27T09:02:26;99900.91;;;8.53;100.00
43364;BME280;40636;52.424;-1.948;2023-04-27T09:04:55;99893.06;;;8.56;100.00
43364;BME280;40636;52.424;-1.948;2023-04-27T09:07:22;99896.63;;;8.69;100.00
43364;BME280;40636;52.424;-1.948;2023-04-27T09:10:01;99884.00;;;8.79;100.00
43364;BME280;40636;52.424;-1.948;2023-04-27T09:12:28;99882.09;;;8.92;100.00
43364;BME280;40636;52.424;-1.948;2023-04-27T09:14:59;99871.22;;;9.08;100.00
43364;BME280;40636;52.424;-1.948;2023-04-27T09:17:27;99866.16;;;9.17;100.00
43364;BME280;40636;52.424;-1.948;2023-04-27T09:20:07;99866.50;;;9.21;100.00
43364;BME280;40636;52.424;-1.948;2023-04-27T09:22:45;99854.63;;;9.15;100.00
43364;BME280;40636;52.424;-1.948;2023-04-27T09:25:28;99854.06;;;9.13;100.00
43364;BME280;40636;52.424;-1.948;2023-04-27T09:27:56;99854.28;;;9.11;100.00
43364;BME280;40636;52.424;-1.948;2023-04-27T09:30:25;99840.84;;;9.10;100.00
43364;BME280;40636;52.424;-1.948;2023-04-27T09:32:59;99844.25;;;9.17;100.00
43364;BME280;40636;52.424;-1.948;2023-04-27T09:35:31;99838.66;;;9.24;100.00
43364;BME280;40636;52.424;-1.948;2023-04-27T09:37:59;99835.31;;;9.22;100.00
43364;BME280;40636;52.424;-1.948;2023-04-27T09:40:27;99825.59;;;9.14;100.00
43364;BME280;40636;52.424;-1.948;2023-04-27T09:42:59;99822.59;;;9.15;100.00
43364;BME280;40636;52.424;-1.948;2023-04-27T09:45:27;99827.25;;;9.15;100.00
43364;BME280;40636;52.424;-1.948;2023-04-27T09:47:54;99826.91;;;9.11;100.00
43364;BME280;40636;52.424;-1.948;2023-04-27T09:50:21;99834.03;;;9.12;100.00
43364;BME280;40636;52.424;-1.948;2023-04-27T09:52:48;99827.00;;;9.17;100.00
43364;BME280;40636;52.424;-1.948;2023-04-27T09:55:21;99829.34;;;9.25;100.00
43364;BME280;40636;52.424;-1.948;2023-04-27T09:58:07;99834.44;;;9.33;100.00
43364;BME280;40636;52.424;-1.948;2023-04-27T10:08:52;99831.97;;;9.48;100.00
43364;BME280;40636;52.424;-1.948;2023-04-27T10:11:19;99834.81;;;9.53;100.00
43364;BME280;40636;52.424;-1.948;2023-04-27T10:13:53;99822.28;;;9.57;100.00
43364;BME280;40636;52.424;-1.948;2023-04-27T10:16:21;99819.06;;;9.60;100.00
43364;BME280;40636;52.424;-1.948;2023-04-27T10:18:55;99816.66;;;9.64;100.00
43364;BME280;40636;52.424;-1.948;2023-04-27T10:21:22;99805.34;;;9.60;100.00
43364;BME280;40636;52.424;-1.948;2023-04-27T10:23:51;99808.59;;;9.57;100.00
43364;BME280;40636;52.424;-1.948;2023-04-27T10:26:25;99808.94;;;9.61;100.00
43364;BME280;40636;52.424;-1.948;2023-04-27T10:29:20;99797.97;;;9.61;100.00
43364;BME280;40636;52.424;-1.948;2023-04-27T10:31:47;99791.56;;;9.55;100.00
43364;BME280;40636;52.424;-1.948;2023-04-27T10:34:17;99790.56;;;9.61;100.00
43364;BME280;40636;52.424;-1.948;2023-04-27T10:36:46;99789.50;;;9.62;100.00
43364;BME280;40636;52.424;-1.948;2023-04-27T10:39:16;99780.13;;;9.58;100.00
43364;BME280;40636;52.424;-1.948;2023-04-27T10:41:54;99777.41;;;9.58;100.00
43364;BME280;40636;52.424;-1.948;2023-04-27T10:44:26;99785.63;;;9.58;100.00
43364;BME280;40636;52.424;-1.948;2023-04-27T10:46:59;99776.53;;;9.58;100.00
43364;BME280;40636;52.424;-1.948;2023-04-27T10:49:27;99770.91;;;9.64;100.00
43364;BME280;40636;52.424;-1.948;2023-04-27T10:51:57;99770.31;;;9.62;100.00
43364;BME280;40636;52.424;-1.948;2023-04-27T10:54:27;99761.88;;;9.64;100.00
43364;BME280;40636;52.424;-1.948;2023-04-27T10:57:04;99757.78;;;9.66;100.00
43364;BME280;40636;52.424;-1.948;2023-04-27T10:59:32;99750.97;;;9.69;100.00
43364;BME280;40636;52.424;-1.948;2023-04-27T11:01:59;99741.53;;;9.77;100.00
43364;BME280;40636;52.424;-1.948;2023-04-27T11:04:37;99745.31;;;9.76;100.00
43364;BME280;40636;52.424;-1.948;2023-04-27T11:07:05;99744.16;;;9.72;100.00
43364;BME280;40636;52.424;-1.948;2023-04-27T11:09:38;99740.91;;;9.75;100.00
43364;BME280;40636;52.424;-1.948;2023-04-27T11:12:06;99744.50;;;9.75;100.00
43364;BME280;40636;52.424;-1.948;2023-04-27T11:14:36;99731.38;;;9.77;100.00
43364;BME280;40636;52.424;-1.948;2023-04-27T11:17:03;99730.03;;;9.80;100.00
43364;BME280;40636;52.424;-1.948;2023-04-27T11:19:30;99728.47;;;9.84;100.00
43364;BME280;40636;52.424;-1.948;2023-04-27T11:22:02;99724.06;;;9.83;100.00
43364;BME280;40636;52.424;-1.948;2023-04-27T11:24:29;99722.16;;;9.83;100.00
43364;BME280;40636;52.424;-1.948;2023-04-27T11:26:56;99718.09;;;9.86;100.00
43364;BME280;40636;52.424;-1.948;2023-04-27T11:29:23;99712.97;;;9.95;100.00
43364;BME280;40636;52.424;-1.948;2023-04-27T11:31:50;99717.75;;;9.99;100.00
43364;BME280;40636;52.424;-1.948;2023-04-27T11:34:19;99718.28;;;10.01;100.00
43364;BME280;40636;52.424;-1.948;2023-04-27T11:37:02;99707.59;;;10.00;100.00
43364;BME280;40636;52.424;-1.948;2023-04-27T11:39:44;99715.28;;;10.03;100.00
43364;BME280;40636;52.424;-1.948;2023-04-27T11:42:21;99716.72;;;10.05;100.00
43364;BME280;40636;52.424;-1.948;2023-04-27T11:44:51;99716.44;;;10.07;100.00
43364;BME280;40636;52.424;-1.948;2023-04-27T11:47:19;99724.19;;;10.10;100.00
43364;BME280;40636;52.424;-1.948;2023-04-27T11:49:50;99719.94;;;10.02;100.00
43364;BME280;40636;52.424;-1.948;2023-04-27T11:52:18;99720.22;;;10.01;100.00
43364;BME280;40636;52.424;-1.948;2023-04-27T11:57:15;99710.91;;;10.02;100.00
43364;BME280;40636;52.424;-1.948;2023-04-27T11:59:42;99710.63;;;10.03;100.00
43364;BME280;40636;52.424;-1.948;2023-04-27T12:02:08;99700.00;;;10.07;100.00
43364;BME280;40636;52.424;-1.948;2023-04-27T12:04:35;99698.16;;;10.12;100.00
43364;BME280;40636;52.424;-1.948;2023-04-27T12:07:03;99687.28;;;10.18;100.00
43364;BME280;40636;52.424;-1.948;2023-04-27T12:09:29;99681.25;;;10.21;100.00
43364;BME280;40636;52.424;-1.948;2023-04-27T12:11:56;99681.34;;;10.26;100.00
43364;BME280;40636;52.424;-1.948;2023-04-27T12:14:24;99674.47;;;10.23;100.00
43364;BME280;40636;52.424;-1.948;2023-04-27T12:16:51;99682.69;;;10.23;100.00
43364;BME280;40636;52.424;-1.948;2023-04-27T12:19:17;99675.63;;;10.27;100.00
43364;BME280;40636;52.424;-1.948;2023-04-27T12:21:44;99679.53;;;10.31;100.00
43364;BME280;40636;52.424;-1.948;2023-04-27T12:24:12;99678.94;;;10.29;100.00
43364;BME280;40636;52.424;-1.948;2023-04-27T12:26:39;99681.50;;;10.36;100.00
43364;BME280;40636;52.424;-1.948;2023-04-27T12:29:06;99683.72;;;10.39;100.00
43364;BME280;40636;52.424;-1.948;2023-04-27T12:31:33;99677.22;;;10.45;100.00
43364;BME280;40636;52.424;-1.948;2023-04-27T12:34:00;99677.50;;;10.49;100.00
43364;BME280;40636;52.424;-1.948;2023-04-27T12:36:26;99675.91;;;10.53;100.00
43364;BME280;40636;52.424;-1.948;2023-04-27T12:39:10;99673.50;;;10.56;100.00
43364;BME280;40636;52.424;-1.948;2023-04-27T12:41:37;99672.28;;;10.69;100.00
43364;BME280;40636;52.424;-1.948;2023-04-27T12:44:04;99668.75;;;10.74;100.00
43364;BME280;40636;52.424;-1.948;2023-04-27T12:46:30;99663.59;;;10.77;100.00
43364;BME280;40636;52.424;-1.948;2023-04-27T12:48:57;99656.22;;;10.83;100.00
43364;BME280;40636;52.424;-1.948;2023-04-27T12:51:24;99663.88;;;10.81;100.00
43364;BME280;40636;52.424;-1.948;2023-04-27T12:53:54;99663.34;;;10.84;100.00
43364;BME280;40636;52.424;-1.948;2023-04-27T12:56:26;99658.50;;;10.91;100.00
43364;BME280;40636;52.424;-1.948;2023-04-27T12:58:53;99656.63;;;10.97;100.00
43364;BME280;40636;52.424;-1.948;2023-04-27T13:01:21;99653.56;;;10.93;100.00